sensor_id;sensor_type;location;lat;lon;timestamp;P1;durP1;ratioP1;P2;durP2;ratioP2
13230;SDS011;6681;53.254;10.398;2023-11-19T00:02:18;9.93;;;7.17;;
13230;SDS011;6681;53.254;10.398;2023-11-19T00:04:44;10.67;;;6.83;;
13230;SDS011;6681;53.254;10.398;2023-11-19T00:07:10;6.47;;;5.17;;
13230;SDS011;6681;53.254;10.398;2023-11-19T00:09:37;9.33;;;5.30;;
13230;SDS011;6681;53.254;10.398;2023-11-19T00:12:06;6.20;;;4.87;;
13230;SDS011;6681;53.254;10.398;2023-11-19T00:14:32;8.67;;;4.77;;
13230;SDS011;6681;53.254;10.398;2023-11-19T00:16:59;6.07;;;5.00;;
13230;SDS011;6681;53.254;10.398;2023-11-19T00:19:25;8.33;;;5.37;;
13230;SDS011;6681;53.254;10.398;2023-11-19T00:21:51;7.07;;;5.23;;
13230;SDS011;6681;53.254;10.398;2023-11-19T00:24:17;9.03;;;5.67;;
13230;SDS011;6681;53.254;10.398;2023-11-19T00:26:43;6.50;;;5.20;;
13230;SDS011;6681;53.254;10.398;2023-11-19T00:29:09;6.83;;;4.90;;
13230;SDS011;6681;53.254;10.398;2023-11-19T00:31:38;4.60;;;4.07;;
13230;SDS011;6681;53.254;10.398;2023-11-19T00:34:04;5.27;;;3.77;;
13230;SDS011;6681;53.254;10.398;2023-11-19T00:36:31;4.80;;;4.23;;
13230;SDS011;6681;53.254;10.398;2023-11-19T00:38:56;3.90;;;3.60;;
13230;SDS011;6681;53.254;10.398;2023-11-19T00:41:23;6.73;;;4.73;;
13230;SDS011;6681;53.254;10.398;2023-11-19T00:43:48;4.67;;;3.80;;
13230;SDS011;6681;53.254;10.398;2023-11-19T00:46:14;5.20;;;4.37;;
13230;SDS011;6681;53.254;10.398;2023-11-19T00:48:40;5.17;;;4.57;;
13230;SDS011;6681;53.254;10.398;2023-11-19T00:51:05;5.30;;;4.30;;
13230;SDS011;6681;53.254;10.398;2023-11-19T00:53:31;5.40;;;3.87;;
13230;SDS011;6681;53.254;10.398;2023-11-19T00:55:58;6.17;;;4.53;;
13230;SDS011;6681;53.254;10.398;2023-11-19T00:58:25;4.20;;;3.77;;
13230;SDS011;6681;53.254;10.398;2023-11-19T01:00:50;4.97;;;4.13;;
13230;SDS011;6681;53.254;10.398;2023-11-19T01:03:17;6.73;;;4.53;;
13230;SDS011;6681;53.254;10.398;2023-11-19T01:05:42;8.87;;;5.10;;
13230;SDS011;6681;53.254;10.398;2023-11-19T01:08:09;5.50;;;4.10;;
13230;SDS011;6681;53.254;10.398;2023-11-19T01:10:36;8.03;;;4.27;;
13230;SDS011;6681;53.254;10.398;2023-11-19T01:13:02;5.33;;;3.93;;
13230;SDS011;6681;53.254;10.398;2023-11-19T01:15:31;6.03;;;4.43;;
13230;SDS011;6681;53.254;10.398;2023-11-19T01:17:57;7.37;;;4.07;;
13230;SDS011;6681;53.254;10.398;2023-11-19T01:20:22;6.10;;;4.70;;
13230;SDS011;6681;53.254;10.398;2023-11-19T01:22:51;7.20;;;4.27;;
13230;SDS011;6681;53.254;10.398;2023-11-19T01:25:16;6.73;;;3.63;;
13230;SDS011;6681;53.254;10.398;2023-11-19T01:27:42;5.17;;;3.87;;
13230;SDS011;6681;53.254;10.398;2023-11-19T01:30:08;3.40;;;3.00;;
13230;SDS011;6681;53.254;10.398;2023-11-19T01:32:37;4.73;;;3.33;;
13230;SDS011;6681;53.254;10.398;2023-11-19T01:35:03;4.00;;;3.40;;
13230;SDS011;6681;53.254;10.398;2023-11-19T01:37:29;3.27;;;2.60;;
13230;SDS011;6681;53.254;10.398;2023-11-19T01:39:56;5.53;;;3.53;;
13230;SDS011;6681;53.254;10.398;2023-11-19T01:42:22;6.53;;;4.20;;
13230;SDS011;6681;53.254;10.398;2023-11-19T01:45:00;5.17;;;4.33;;
13230;SDS011;6681;53.254;10.398;2023-11-19T01:47:29;4.83;;;3.30;;
13230;SDS011;6681;53.254;10.398;2023-11-19T01:49:56;4.00;;;3.40;;
13230;SDS011;6681;53.254;10.398;2023-11-19T01:52:22;4.90;;;3.23;;
13230;SDS011;6681;53.254;10.398;2023-11-19T01:54:48;5.37;;;4.33;;
13230;SDS011;6681;53.254;10.398;2023-11-19T01:57:14;6.70;;;4.20;;
13230;SDS011;6681;53.254;10.398;2023-11-19T01:59:40;6.93;;;4.87;;
13230;SDS011;6681;53.254;10.398;2023-11-19T02:02:06;5.50;;;3.80;;
13230;SDS011;6681;53.254;10.398;2023-11-19T02:04:35;4.60;;;4.10;;
13230;SDS011;6681;53.254;10.398;2023-11-19T02:07:03;8.00;;;4.37;;
13230;SDS011;6681;53.254;10.398;2023-11-19T02:09:29;5.47;;;3.77;;
13230;SDS011;6681;53.254;10.398;2023-11-19T02:11:55;5.23;;;4.07;;
13230;SDS011;6681;53.254;10.398;2023-11-19T02:14:24;4.73;;;4.30;;
13230;SDS011;6681;53.254;10.398;2023-11-19T02:16:51;6.30;;;4.77;;
13230;SDS011;6681;53.254;10.398;2023-11-19T02:19:20;5.77;;;4.70;;
13230;SDS011;6681;53.254;10.398;2023-11-19T02:21:45;5.20;;;3.80;;
13230;SDS011;6681;53.254;10.398;2023-11-19T02:24:11;4.80;;;4.00;;
13230;SDS011;6681;53.254;10.398;2023-11-19T02:29:27;5.23;;;4.70;;
13230;SDS011;6681;53.254;10.398;2023-11-19T02:31:53;4.60;;;3.83;;
13230;SDS011;6681;53.254;10.398;2023-11-19T02:34:20;6.77;;;4.80;;
13230;SDS011;6681;53.254;10.398;2023-11-19T02:36:46;6.17;;;4.07;;
13230;SDS011;6681;53.254;10.398;2023-11-19T02:39:12;7.57;;;4.03;;
13230;SDS011;6681;53.254;10.398;2023-11-19T02:41:38;4.70;;;3.43;;
13230;SDS011;6681;53.254;10.398;2023-11-19T02:44:05;3.20;;;2.90;;
13230;SDS011;6681;53.254;10.398;2023-11-19T02:46:33;3.47;;;2.77;;
13230;SDS011;6681;53.254;10.398;2023-11-19T02:48:59;6.53;;;3.73;;
13230;SDS011;6681;53.254;10.398;2023-11-19T02:51:25;3.73;;;3.20;;
13230;SDS011;6681;53.254;10.398;2023-11-19T02:53:52;4.23;;;3.43;;
13230;SDS011;6681;53.254;10.398;2023-11-19T02:56:18;5.27;;;3.37;;
13230;SDS011;6681;53.254;10.398;2023-11-19T02:59:04;4.23;;;3.40;;
13230;SDS011;6681;53.254;10.398;2023-11-19T03:01:37;3.87;;;3.47;;
13230;SDS011;6681;53.254;10.398;2023-11-19T03:04:02;5.03;;;3.73;;
13230;SDS011;6681;53.254;10.398;2023-11-19T03:06:29;3.27;;;2.87;;
13230;SDS011;6681;53.254;10.398;2023-11-19T03:08:54;2.83;;;2.57;;
13230;SDS011;6681;53.254;10.398;2023-11-19T03:11:20;2.60;;;2.40;;
13230;SDS011;6681;53.254;10.398;2023-11-19T03:13:46;2.70;;;2.50;;
13230;SDS011;6681;53.254;10.398;2023-11-19T03:16:12;2.00;;;1.80;;
13230;SDS011;6681;53.254;10.398;2023-11-19T03:18:38;7.20;;;3.47;;
13230;SDS011;6681;53.254;10.398;2023-11-19T03:21:07;2.73;;;2.33;;
13230;SDS011;6681;53.254;10.398;2023-11-19T03:23:33;2.57;;;2.37;;
13230;SDS011;6681;53.254;10.398;2023-11-19T03:25:59;2.97;;;1.57;;
13230;SDS011;6681;53.254;10.398;2023-11-19T03:28:28;1.80;;;1.53;;
13230;SDS011;6681;53.254;10.398;2023-11-19T03:30:54;1.43;;;1.33;;
13230;SDS011;6681;53.254;10.398;2023-11-19T03:33:20;1.40;;;1.30;;
13230;SDS011;6681;53.254;10.398;2023-11-19T03:35:45;1.17;;;1.07;;
13230;SDS011;6681;53.254;10.398;2023-11-19T03:38:16;5.50;;;1.63;;
13230;SDS011;6681;53.254;10.398;2023-11-19T03:40:42;1.30;;;1.20;;
13230;SDS011;6681;53.254;10.398;2023-11-19T03:43:08;1.47;;;1.37;;
13230;SDS011;6681;53.254;10.398;2023-11-19T03:45:34;1.30;;;1.20;;
13230;SDS011;6681;53.254;10.398;2023-11-19T03:48:01;2.00;;;1.27;;
13230;SDS011;6681;53.254;10.398;2023-11-19T03:50:26;2.60;;;1.07;;
13230;SDS011;6681;53.254;10.398;2023-11-19T03:52:52;1.87;;;1.63;;
13230;SDS011;6681;53.254;10.398;2023-11-19T03:55:18;2.33;;;1.53;;
13230;SDS011;6681;53.254;10.398;2023-11-19T03:57:43;1.30;;;1.20;;
13230;SDS011;6681;53.254;10.398;2023-11-19T04:00:09;1.77;;;1.43;;
13230;SDS011;6681;53.254;10.398;2023-11-19T04:02:36;1.20;;;1.10;;
13230;SDS011;6681;53.254;10.398;2023-11-19T04:05:02;1.47;;;1.37;;
13230;SDS011;6681;53.254;10.398;2023-11-19T04:07:30;1.43;;;1.33;;
13230;SDS011;6681;53.254;10.398;2023-11-19T04:09:56;1.53;;;1.43;;
13230;SDS011;6681;53.254;10.398;2023-11-19T04:12:22;1.43;;;0.83;;
13230;SDS011;6681;53.254;10.398;2023-11-19T04:14:48;1.73;;;1.40;;
13230;SDS011;6681;53.254;10.398;2023-11-19T04:17:13;1.30;;;1.20;;
13230;SDS011;6681;53.254;10.398;2023-11-19T04:19:39;2.30;;;1.77;;
13230;SDS011;6681;53.254;10.398;2023-11-19T04:22:07;1.50;;;1.33;;
13230;SDS011;6681;53.254;10.398;2023-11-19T04:24:34;2.83;;;2.20;;
13230;SDS011;6681;53.254;10.398;2023-11-19T04:26:59;2.67;;;2.00;;
13230;SDS011;6681;53.254;10.398;2023-11-19T04:29:25;2.73;;;2.53;;
13230;SDS011;6681;53.254;10.398;2023-11-19T04:31:50;2.87;;;2.67;;
13230;SDS011;6681;53.254;10.398;2023-11-19T04:34:16;3.60;;;3.13;;
13230;SDS011;6681;53.254;10.398;2023-11-19T04:36:42;4.97;;;2.93;;
13230;SDS011;6681;53.254;10.398;2023-11-19T04:39:08;3.67;;;3.07;;
13230;SDS011;6681;53.254;10.398;2023-11-19T04:41:45;2.97;;;2.67;;
13230;SDS011;6681;53.254;10.398;2023-11-19T04:44:12;4.17;;;3.77;;
13230;SDS011;6681;53.254;10.398;2023-11-19T04:46:38;4.30;;;3.90;;
13230;SDS011;6681;53.254;10.398;2023-11-19T04:49:04;5.93;;;4.40;;
13230;SDS011;6681;53.254;10.398;2023-11-19T04:51:29;4.97;;;4.47;;
13230;SDS011;6681;53.254;10.398;2023-11-19T04:53:55;5.67;;;4.50;;
13230;SDS011;6681;53.254;10.398;2023-11-19T04:56:21;7.17;;;4.83;;
13230;SDS011;6681;53.254;10.398;2023-11-19T04:58:48;6.87;;;5.00;;
13230;SDS011;6681;53.254;10.398;2023-11-19T05:01:14;7.30;;;5.63;;
13230;SDS011;6681;53.254;10.398;2023-11-19T05:03:43;8.93;;;5.80;;
13230;SDS011;6681;53.254;10.398;2023-11-19T05:06:09;10.13;;;7.63;;
13230;SDS011;6681;53.254;10.398;2023-11-19T05:08:35;8.37;;;6.80;;
13230;SDS011;6681;53.254;10.398;2023-11-19T05:11:01;10.13;;;7.27;;
13230;SDS011;6681;53.254;10.398;2023-11-19T05:13:26;12.07;;;8.30;;
13230;SDS011;6681;53.254;10.398;2023-11-19T05:15:52;12.07;;;9.20;;
13230;SDS011;6681;53.254;10.398;2023-11-19T05:18:17;12.60;;;8.47;;
13230;SDS011;6681;53.254;10.398;2023-11-19T05:20:43;11.90;;;8.33;;
13230;SDS011;6681;53.254;10.398;2023-11-19T05:23:10;10.57;;;8.23;;
13230;SDS011;6681;53.254;10.398;2023-11-19T05:25:36;11.50;;;8.87;;
13230;SDS011;6681;53.254;10.398;2023-11-19T05:28:02;12.07;;;8.93;;
13230;SDS011;6681;53.254;10.398;2023-11-19T05:30:27;14.03;;;9.53;;
13230;SDS011;6681;53.254;10.398;2023-11-19T05:32:53;14.47;;;10.07;;
13230;SDS011;6681;53.254;10.398;2023-11-19T05:35:18;16.67;;;10.23;;
13230;SDS011;6681;53.254;10.398;2023-11-19T05:37:44;10.93;;;9.23;;
13230;SDS011;6681;53.254;10.398;2023-11-19T05:40:10;14.83;;;9.03;;
13230;SDS011;6681;53.254;10.398;2023-11-19T05:42:42;13.20;;;10.63;;
13230;SDS011;6681;53.254;10.398;2023-11-19T05:45:10;15.23;;;11.30;;
13230;SDS011;6681;53.254;10.398;2023-11-19T05:47:37;17.63;;;10.80;;
13230;SDS011;6681;53.254;10.398;2023-11-19T05:50:02;17.30;;;11.93;;
13230;SDS011;6681;53.254;10.398;2023-11-19T05:52:30;22.30;;;11.60;;
13230;SDS011;6681;53.254;10.398;2023-11-19T05:54:59;17.70;;;12.07;;
13230;SDS011;6681;53.254;10.398;2023-11-19T05:57:28;19.50;;;10.57;;
13230;SDS011;6681;53.254;10.398;2023-11-19T05:59:54;14.97;;;10.77;;
13230;SDS011;6681;53.254;10.398;2023-11-19T06:02:20;18.70;;;11.97;;
13230;SDS011;6681;53.254;10.398;2023-11-19T06:04:45;16.93;;;10.47;;
13230;SDS011;6681;53.254;10.398;2023-11-19T06:07:13;17.47;;;11.83;;
13230;SDS011;6681;53.254;10.398;2023-11-19T06:09:40;21.80;;;12.90;;
13230;SDS011;6681;53.254;10.398;2023-11-19T06:12:06;17.20;;;10.53;;
13230;SDS011;6681;53.254;10.398;2023-11-19T06:14:32;17.67;;;11.83;;
13230;SDS011;6681;53.254;10.398;2023-11-19T06:16:58;20.07;;;11.40;;
13230;SDS011;6681;53.254;10.398;2023-11-19T06:19:23;18.87;;;11.97;;
13230;SDS011;6681;53.254;10.398;2023-11-19T06:21:51;16.93;;;11.87;;
13230;SDS011;6681;53.254;10.398;2023-11-19T06:24:17;20.80;;;11.50;;
13230;SDS011;6681;53.254;10.398;2023-11-19T06:26:43;26.27;;;12.30;;
13230;SDS011;6681;53.254;10.398;2023-11-19T06:29:08;20.00;;;12.67;;
13230;SDS011;6681;53.254;10.398;2023-11-19T06:31:34;21.97;;;11.90;;
13230;SDS011;6681;53.254;10.398;2023-11-19T06:34:00;22.60;;;13.27;;
13230;SDS011;6681;53.254;10.398;2023-11-19T06:36:25;20.37;;;13.20;;
13230;SDS011;6681;53.254;10.398;2023-11-19T06:38:51;21.27;;;11.93;;
13230;SDS011;6681;53.254;10.398;2023-11-19T06:41:17;27.80;;;13.43;;
13230;SDS011;6681;53.254;10.398;2023-11-19T06:43:43;19.33;;;11.10;;
13230;SDS011;6681;53.254;10.398;2023-11-19T06:46:18;27.93;;;13.03;;
13230;SDS011;6681;53.254;10.398;2023-11-19T06:48:44;27.87;;;13.00;;
13230;SDS011;6681;53.254;10.398;2023-11-19T06:51:10;22.97;;;13.07;;
13230;SDS011;6681;53.254;10.398;2023-11-19T06:53:36;27.77;;;12.27;;
13230;SDS011;6681;53.254;10.398;2023-11-19T06:56:02;28.33;;;11.90;;
13230;SDS011;6681;53.254;10.398;2023-11-19T06:58:31;26.03;;;11.93;;
13230;SDS011;6681;53.254;10.398;2023-11-19T07:01:00;35.20;;;12.87;;
13230;SDS011;6681;53.254;10.398;2023-11-19T07:03:26;22.83;;;12.37;;
13230;SDS011;6681;53.254;10.398;2023-11-19T07:05:51;26.93;;;11.23;;
13230;SDS011;6681;53.254;10.398;2023-11-19T07:08:17;38.20;;;14.00;;
13230;SDS011;6681;53.254;10.398;2023-11-19T07:10:43;26.73;;;11.83;;
13230;SDS011;6681;53.254;10.398;2023-11-19T07:13:08;26.47;;;12.63;;
13230;SDS011;6681;53.254;10.398;2023-11-19T07:15:34;28.77;;;12.20;;
13230;SDS011;6681;53.254;10.398;2023-11-19T07:18:00;24.57;;;12.13;;
13230;SDS011;6681;53.254;10.398;2023-11-19T07:20:26;21.37;;;12.40;;
13230;SDS011;6681;53.254;10.398;2023-11-19T07:22:51;29.63;;;12.73;;
13230;SDS011;6681;53.254;10.398;2023-11-19T07:25:17;29.70;;;11.50;;
13230;SDS011;6681;53.254;10.398;2023-11-19T07:27:43;29.00;;;12.47;;
13230;SDS011;6681;53.254;10.398;2023-11-19T07:30:09;28.70;;;11.57;;
13230;SDS011;6681;53.254;10.398;2023-11-19T07:32:35;22.53;;;10.90;;
13230;SDS011;6681;53.254;10.398;2023-11-19T07:35:00;28.87;;;10.17;;
13230;SDS011;6681;53.254;10.398;2023-11-19T07:37:26;26.20;;;10.83;;
13230;SDS011;6681;53.254;10.398;2023-11-19T07:39:52;24.23;;;10.60;;
13230;SDS011;6681;53.254;10.398;2023-11-19T07:42:17;29.57;;;11.33;;
13230;SDS011;6681;53.254;10.398;2023-11-19T07:44:43;27.07;;;9.87;;
13230;SDS011;6681;53.254;10.398;2023-11-19T07:47:09;24.00;;;10.30;;
13230;SDS011;6681;53.254;10.398;2023-11-19T07:49:35;24.93;;;9.40;;
13230;SDS011;6681;53.254;10.398;2023-11-19T07:52:01;32.30;;;9.07;;
13230;SDS011;6681;53.254;10.398;2023-11-19T07:54:28;24.27;;;9.07;;
13230;SDS011;6681;53.254;10.398;2023-11-19T07:56:53;21.13;;;8.80;;
13230;SDS011;6681;53.254;10.398;2023-11-19T07:59:19;25.97;;;8.40;;
13230;SDS011;6681;53.254;10.398;2023-11-19T08:01:45;27.80;;;9.17;;
13230;SDS011;6681;53.254;10.398;2023-11-19T08:04:10;22.87;;;7.90;;
13230;SDS011;6681;53.254;10.398;2023-11-19T08:06:36;23.83;;;6.83;;
13230;SDS011;6681;53.254;10.398;2023-11-19T08:09:02;19.10;;;7.10;;
13230;SDS011;6681;53.254;10.398;2023-11-19T08:11:27;23.67;;;6.87;;
13230;SDS011;6681;53.254;10.398;2023-11-19T08:13:53;17.50;;;5.83;;
13230;SDS011;6681;53.254;10.398;2023-11-19T08:16:18;23.17;;;6.43;;
13230;SDS011;6681;53.254;10.398;2023-11-19T08:18:44;21.90;;;6.47;;
13230;SDS011;6681;53.254;10.398;2023-11-19T08:21:10;22.27;;;6.70;;
13230;SDS011;6681;53.254;10.398;2023-11-19T08:23:35;29.03;;;7.43;;
13230;SDS011;6681;53.254;10.398;2023-11-19T08:26:02;16.93;;;5.73;;
13230;SDS011;6681;53.254;10.398;2023-11-19T08:28:28;19.80;;;6.33;;
13230;SDS011;6681;53.254;10.398;2023-11-19T08:30:53;21.07;;;6.47;;
13230;SDS011;6681;53.254;10.398;2023-11-19T08:33:19;27.47;;;6.43;;
13230;SDS011;6681;53.254;10.398;2023-11-19T08:35:47;23.47;;;7.03;;
13230;SDS011;6681;53.254;10.398;2023-11-19T08:38:13;26.43;;;6.37;;
13230;SDS011;6681;53.254;10.398;2023-11-19T08:40:38;22.20;;;7.53;;
13230;SDS011;6681;53.254;10.398;2023-11-19T08:43:04;25.43;;;5.43;;
13230;SDS011;6681;53.254;10.398;2023-11-19T08:45:30;41.27;;;8.10;;
13230;SDS011;6681;53.254;10.398;2023-11-19T08:47:56;26.63;;;6.03;;
13230;SDS011;6681;53.254;10.398;2023-11-19T08:50:22;24.43;;;6.30;;
13230;SDS011;6681;53.254;10.398;2023-11-19T08:52:48;27.37;;;8.67;;
13230;SDS011;6681;53.254;10.398;2023-11-19T08:55:14;28.37;;;7.17;;
13230;SDS011;6681;53.254;10.398;2023-11-19T08:57:40;17.30;;;6.57;;
13230;SDS011;6681;53.254;10.398;2023-11-19T09:00:05;31.40;;;7.57;;
13230;SDS011;6681;53.254;10.398;2023-11-19T09:02:35;22.27;;;6.03;;
13230;SDS011;6681;53.254;10.398;2023-11-19T09:05:02;34.07;;;9.20;;
13230;SDS011;6681;53.254;10.398;2023-11-19T09:07:29;20.67;;;6.73;;
13230;SDS011;6681;53.254;10.398;2023-11-19T09:09:54;28.30;;;7.57;;
13230;SDS011;6681;53.254;10.398;2023-11-19T09:12:20;18.33;;;5.77;;
13230;SDS011;6681;53.254;10.398;2023-11-19T09:14:46;29.60;;;7.37;;
13230;SDS011;6681;53.254;10.398;2023-11-19T09:17:11;24.13;;;6.57;;
13230;SDS011;6681;53.254;10.398;2023-11-19T09:19:37;19.27;;;5.33;;
13230;SDS011;6681;53.254;10.398;2023-11-19T09:22:03;18.57;;;4.83;;
13230;SDS011;6681;53.254;10.398;2023-11-19T09:24:29;23.27;;;5.70;;
13230;SDS011;6681;53.254;10.398;2023-11-19T09:26:54;27.47;;;6.30;;
13230;SDS011;6681;53.254;10.398;2023-11-19T09:29:21;19.93;;;5.73;;
13230;SDS011;6681;53.254;10.398;2023-11-19T09:31:47;32.37;;;8.20;;
13230;SDS011;6681;53.254;10.398;2023-11-19T09:34:12;15.87;;;5.20;;
13230;SDS011;6681;53.254;10.398;2023-11-19T09:36:38;24.67;;;7.63;;
13230;SDS011;6681;53.254;10.398;2023-11-19T09:39:08;25.03;;;7.23;;
13230;SDS011;6681;53.254;10.398;2023-11-19T09:41:34;26.23;;;8.53;;
13230;SDS011;6681;53.254;10.398;2023-11-19T09:44:00;30.20;;;7.93;;
13230;SDS011;6681;53.254;10.398;2023-11-19T09:46:29;17.47;;;4.73;;
13230;SDS011;6681;53.254;10.398;2023-11-19T09:48:55;23.10;;;5.50;;
13230;SDS011;6681;53.254;10.398;2023-11-19T09:51:22;23.87;;;7.97;;
13230;SDS011;6681;53.254;10.398;2023-11-19T09:53:49;24.33;;;6.93;;
13230;SDS011;6681;53.254;10.398;2023-11-19T09:56:14;24.00;;;7.87;;
13230;SDS011;6681;53.254;10.398;2023-11-19T09:58:42;28.63;;;7.30;;
13230;SDS011;6681;53.254;10.398;2023-11-19T10:01:07;30.93;;;8.13;;
13230;SDS011;6681;53.254;10.398;2023-11-19T10:03:36;28.77;;;5.63;;
13230;SDS011;6681;53.254;10.398;2023-11-19T10:06:04;23.50;;;6.53;;
13230;SDS011;6681;53.254;10.398;2023-11-19T10:08:37;25.50;;;6.87;;
13230;SDS011;6681;53.254;10.398;2023-11-19T10:11:06;31.67;;;7.27;;
13230;SDS011;6681;53.254;10.398;2023-11-19T10:13:35;36.67;;;7.07;;
13230;SDS011;6681;53.254;10.398;2023-11-19T10:16:11;30.53;;;7.87;;
13230;SDS011;6681;53.254;10.398;2023-11-19T10:18:38;18.07;;;6.00;;
13230;SDS011;6681;53.254;10.398;2023-11-19T10:21:13;28.43;;;6.10;;
13230;SDS011;6681;53.254;10.398;2023-11-19T10:23:54;28.57;;;5.57;;
13230;SDS011;6681;53.254;10.398;2023-11-19T10:26:22;23.30;;;6.93;;
13230;SDS011;6681;53.254;10.398;2023-11-19T10:28:48;31.43;;;8.83;;
13230;SDS011;6681;53.254;10.398;2023-11-19T10:31:17;25.83;;;6.80;;
13230;SDS011;6681;53.254;10.398;2023-11-19T10:33:44;35.63;;;5.77;;
13230;SDS011;6681;53.254;10.398;2023-11-19T10:36:10;28.83;;;6.93;;
13230;SDS011;6681;53.254;10.398;2023-11-19T10:38:40;32.93;;;7.17;;
13230;SDS011;6681;53.254;10.398;2023-11-19T10:41:26;23.00;;;6.33;;
13230;SDS011;6681;53.254;10.398;2023-11-19T10:43:52;27.43;;;7.47;;
13230;SDS011;6681;53.254;10.398;2023-11-19T10:46:17;19.20;;;5.93;;
13230;SDS011;6681;53.254;10.398;2023-11-19T10:48:48;17.00;;;6.17;;
13230;SDS011;6681;53.254;10.398;2023-11-19T10:51:16;23.57;;;7.40;;
13230;SDS011;6681;53.254;10.398;2023-11-19T10:53:49;22.70;;;6.23;;
13230;SDS011;6681;53.254;10.398;2023-11-19T10:56:16;31.17;;;7.60;;
13230;SDS011;6681;53.254;10.398;2023-11-19T10:58:45;18.13;;;6.03;;
13230;SDS011;6681;53.254;10.398;2023-11-19T11:01:20;18.93;;;5.67;;
13230;SDS011;6681;53.254;10.398;2023-11-19T11:03:49;27.07;;;7.67;;
13230;SDS011;6681;53.254;10.398;2023-11-19T11:06:18;31.73;;;7.17;;
13230;SDS011;6681;53.254;10.398;2023-11-19T11:08:47;21.13;;;5.47;;
13230;SDS011;6681;53.254;10.398;2023-11-19T11:11:14;27.87;;;5.77;;
13230;SDS011;6681;53.254;10.398;2023-11-19T11:14:04;24.83;;;7.37;;
13230;SDS011;6681;53.254;10.398;2023-11-19T11:16:30;19.77;;;5.80;;
13230;SDS011;6681;53.254;10.398;2023-11-19T11:18:56;29.17;;;6.23;;
13230;SDS011;6681;53.254;10.398;2023-11-19T11:21:23;28.90;;;7.03;;
13230;SDS011;6681;53.254;10.398;2023-11-19T11:29:48;42.70;;;6.80;;
13230;SDS011;6681;53.254;10.398;2023-11-19T11:35:33;35.73;;;6.13;;
13230;SDS011;6681;53.254;10.398;2023-11-19T11:38:16;32.40;;;5.93;;
13230;SDS011;6681;53.254;10.398;2023-11-19T11:41:30;27.77;;;7.67;;
13230;SDS011;6681;53.254;10.398;2023-11-19T11:43:44;26.53;;;7.67;;
13230;SDS011;6681;53.254;10.398;2023-11-19T11:46:55;20.27;;;6.33;;
13230;SDS011;6681;53.254;10.398;2023-11-19T11:49:06;30.67;;;7.20;;
13230;SDS011;6681;53.254;10.398;2023-11-19T11:54:10;35.40;;;6.13;;
13230;SDS011;6681;53.254;10.398;2023-11-19T11:56:39;19.93;;;6.20;;
13230;SDS011;6681;53.254;10.398;2023-11-19T11:59:08;26.40;;;6.70;;
13230;SDS011;6681;53.254;10.398;2023-11-19T12:01:58;21.10;;;6.30;;
13230;SDS011;6681;53.254;10.398;2023-11-19T12:04:27;14.27;;;4.73;;
13230;SDS011;6681;53.254;10.398;2023-11-19T12:09:53;22.27;;;5.27;;
13230;SDS011;6681;53.254;10.398;2023-11-19T12:12:30;15.83;;;4.07;;
13230;SDS011;6681;53.254;10.398;2023-11-19T12:20:02;21.00;;;6.17;;
13230;SDS011;6681;53.254;10.398;2023-11-19T12:22:31;12.27;;;4.30;;
13230;SDS011;6681;53.254;10.398;2023-11-19T12:24:56;21.60;;;4.53;;
13230;SDS011;6681;53.254;10.398;2023-11-19T12:27:23;15.97;;;4.33;;
13230;SDS011;6681;53.254;10.398;2023-11-19T12:29:49;24.73;;;6.20;;
13230;SDS011;6681;53.254;10.398;2023-11-19T12:32:15;24.30;;;4.97;;
13230;SDS011;6681;53.254;10.398;2023-11-19T12:34:40;13.37;;;4.27;;
13230;SDS011;6681;53.254;10.398;2023-11-19T12:37:06;26.67;;;5.33;;
13230;SDS011;6681;53.254;10.398;2023-11-19T12:39:34;10.17;;;3.40;;
13230;SDS011;6681;53.254;10.398;2023-11-19T12:41:59;17.27;;;6.10;;
13230;SDS011;6681;53.254;10.398;2023-11-19T12:44:25;14.30;;;5.40;;
13230;SDS011;6681;53.254;10.398;2023-11-19T12:47:01;20.13;;;4.70;;
13230;SDS011;6681;53.254;10.398;2023-11-19T12:49:36;20.57;;;4.70;;
13230;SDS011;6681;53.254;10.398;2023-11-19T12:52:02;13.67;;;4.87;;
13230;SDS011;6681;53.254;10.398;2023-11-19T12:54:36;20.30;;;5.97;;
13230;SDS011;6681;53.254;10.398;2023-11-19T12:57:02;19.63;;;4.67;;
13230;SDS011;6681;53.254;10.398;2023-11-19T12:59:30;19.30;;;4.60;;
13230;SDS011;6681;53.254;10.398;2023-11-19T13:01:56;16.27;;;5.87;;
13230;SDS011;6681;53.254;10.398;2023-11-19T13:04:23;12.17;;;3.90;;
13230;SDS011;6681;53.254;10.398;2023-11-19T13:06:53;18.17;;;5.30;;
13230;SDS011;6681;53.254;10.398;2023-11-19T13:09:22;15.40;;;5.63;;
13230;SDS011;6681;53.254;10.398;2023-11-19T13:11:55;14.60;;;5.83;;
13230;SDS011;6681;53.254;10.398;2023-11-19T13:14:22;22.67;;;5.33;;
13230;SDS011;6681;53.254;10.398;2023-11-19T13:16:51;22.40;;;6.53;;
13230;SDS011;6681;53.254;10.398;2023-11-19T13:19:19;26.03;;;6.67;;
13230;SDS011;6681;53.254;10.398;2023-11-19T13:21:50;21.97;;;5.47;;
13230;SDS011;6681;53.254;10.398;2023-11-19T13:24:16;20.67;;;5.20;;
13230;SDS011;6681;53.254;10.398;2023-11-19T13:26:43;15.53;;;4.37;;
13230;SDS011;6681;53.254;10.398;2023-11-19T13:29:11;20.00;;;4.23;;
13230;SDS011;6681;53.254;10.398;2023-11-19T13:31:36;20.03;;;6.73;;
13230;SDS011;6681;53.254;10.398;2023-11-19T13:34:03;26.57;;;5.00;;
13230;SDS011;6681;53.254;10.398;2023-11-19T13:36:28;24.17;;;6.83;;
13230;SDS011;6681;53.254;10.398;2023-11-19T13:38:54;24.83;;;6.20;;
13230;SDS011;6681;53.254;10.398;2023-11-19T13:41:24;26.70;;;5.57;;
13230;SDS011;6681;53.254;10.398;2023-11-19T13:43:51;16.20;;;5.30;;
13230;SDS011;6681;53.254;10.398;2023-11-19T13:46:16;21.67;;;5.80;;
13230;SDS011;6681;53.254;10.398;2023-11-19T13:48:42;15.60;;;5.53;;
13230;SDS011;6681;53.254;10.398;2023-11-19T13:51:07;23.13;;;7.33;;
13230;SDS011;6681;53.254;10.398;2023-11-19T13:53:35;26.40;;;6.63;;
13230;SDS011;6681;53.254;10.398;2023-11-19T13:56:00;24.43;;;6.50;;
13230;SDS011;6681;53.254;10.398;2023-11-19T13:58:26;17.97;;;4.97;;
13230;SDS011;6681;53.254;10.398;2023-11-19T14:00:52;25.57;;;7.37;;
13230;SDS011;6681;53.254;10.398;2023-11-19T14:03:17;24.53;;;6.53;;
13230;SDS011;6681;53.254;10.398;2023-11-19T14:05:43;20.07;;;6.73;;
13230;SDS011;6681;53.254;10.398;2023-11-19T14:08:09;34.23;;;9.03;;
13230;SDS011;6681;53.254;10.398;2023-11-19T14:10:38;25.37;;;6.43;;
13230;SDS011;6681;53.254;10.398;2023-11-19T14:13:07;16.93;;;5.10;;
13230;SDS011;6681;53.254;10.398;2023-11-19T14:15:32;18.70;;;5.23;;
13230;SDS011;6681;53.254;10.398;2023-11-19T14:17:58;25.50;;;6.83;;
13230;SDS011;6681;53.254;10.398;2023-11-19T14:20:24;18.40;;;5.73;;
13230;SDS011;6681;53.254;10.398;2023-11-19T14:22:50;18.10;;;4.87;;
13230;SDS011;6681;53.254;10.398;2023-11-19T14:25:17;30.13;;;6.27;;
13230;SDS011;6681;53.254;10.398;2023-11-19T14:27:43;24.20;;;6.90;;
13230;SDS011;6681;53.254;10.398;2023-11-19T14:30:11;26.60;;;5.70;;
13230;SDS011;6681;53.254;10.398;2023-11-19T14:32:41;15.90;;;5.80;;
13230;SDS011;6681;53.254;10.398;2023-11-19T14:35:09;27.53;;;6.30;;
13230;SDS011;6681;53.254;10.398;2023-11-19T14:37:35;25.20;;;8.07;;
13230;SDS011;6681;53.254;10.398;2023-11-19T14:40:01;30.50;;;6.10;;
13230;SDS011;6681;53.254;10.398;2023-11-19T14:42:31;16.33;;;5.47;;
13230;SDS011;6681;53.254;10.398;2023-11-19T14:44:57;16.37;;;4.93;;
13230;SDS011;6681;53.254;10.398;2023-11-19T14:47:22;20.83;;;5.73;;
13230;SDS011;6681;53.254;10.398;2023-11-19T14:49:48;14.63;;;4.70;;
13230;SDS011;6681;53.254;10.398;2023-11-19T14:52:14;15.17;;;3.60;;
13230;SDS011;6681;53.254;10.398;2023-11-19T14:54:40;12.63;;;3.83;;
13230;SDS011;6681;53.254;10.398;2023-11-19T14:57:05;15.93;;;4.37;;
13230;SDS011;6681;53.254;10.398;2023-11-19T14:59:35;15.40;;;3.97;;
13230;SDS011;6681;53.254;10.398;2023-11-19T15:02:03;23.60;;;4.13;;